Time;durP1;ratioP1;P1;durP2;ratioP2;P2;SDS_P1;SDS_P2;PMS_P1;PMS_P2;Temp;Humidity;BMP_temperature;BMP_pressure;BME280_temperature;BME280_humidity;BME280_pressure;Samples;Min_cycle;Max_cycle;Signal;HPM_P1;HPM_P2
2023/05/27 00:01:48;;;;;;;14.02;6.15;;;19.60;91.50;;;;;;4972092;28;20039;-77
2023/05/27 00:04:14;;;;;;;7.70;5.03;;;19.60;91.70;;;;;;4987129;28;20038;-77
2023/05/27 00:06:39;;;;;;;12.70;5.05;;;19.60;91.90;;;;;;4972252;28;20037;-77
2023/05/27 00:09:05;;;;;;;10.30;5.55;;;19.60;91.50;;;;;;4972077;28;20023;-78
2023/05/27 00:11:31;;;;;;;11.10;5.50;;;19.60;91.50;;;;;;4971959;28;20568;-78
2023/05/27 00:13:57;;;;;;;12.52;5.30;;;19.60;92.10;;;;;;4971975;28;20514;-74
2023/05/27 00:16:23;;;;;;;9.15;5.00;;;19.60;91.60;;;;;;4972290;28;20034;-78
2023/05/27 00:18:48;;;;;;;12.57;5.20;;;19.60;91.90;;;;;;4972217;28;20023;-77
2023/05/27 00:21:15;;;;;;;9.10;4.95;;;19.50;91.80;;;;;;4971810;28;20041;-78
2023/05/27 00:23:44;;;;;;;9.90;5.93;;;19.60;91.30;;;;;;4970779;28;20517;-77
2023/05/27 00:26:10;;;;;;;12.15;4.65;;;19.50;91.40;;;;;;4971945;28;20030;-78
2023/05/27 00:28:36;;;;;;;11.88;5.55;;;19.50;91.50;;;;;;4971905;28;20038;-77
2023/05/27 00:31:01;;;;;;;9.52;5.03;;;19.50;91.10;;;;;;4971939;28;20396;-78
2023/05/27 00:33:27;;;;;;;8.88;4.80;;;19.60;90.50;;;;;;4971624;28;20030;-77
2023/05/27 00:35:53;;;;;;;8.18;4.50;;;19.50;90.70;;;;;;4971336;28;20113;-77
2023/05/27 00:38:19;;;;;;;7.32;4.80;;;19.50;90.30;;;;;;4971591;28;20519;-77
2023/05/27 00:40:45;;;;;;;7.85;4.85;;;19.50;89.70;;;;;;4970559;28;20035;-78
2023/05/27 00:43:11;;;;;;;8.50;4.65;;;19.50;89.50;;;;;;4971624;28;20027;-77
2023/05/27 00:45:37;;;;;;;8.45;5.05;;;19.50;89.30;;;;;;4971565;28;20031;-78
2023/05/27 00:48:03;;;;;;;11.23;4.88;;;19.40;89.40;;;;;;4971425;28;20059;-77
2023/05/27 00:50:30;;;;;;;7.65;5.00;;;19.40;89.10;;;;;;4971326;28;20096;-76
2023/05/27 00:52:55;;;;;;;10.65;4.47;;;19.40;88.70;;;;;;4971446;28;20065;-77
2023/05/27 00:55:22;;;;;;;12.55;4.03;;;19.40;88.70;;;;;;4971309;28;20027;-77
2023/05/27 00:57:48;;;;;;;11.80;5.00;;;19.40;89.80;;;;;;4971332;28;20046;-77
2023/05/27 01:00:14;;;;;;;7.38;4.88;;;19.40;89.70;;;;;;4971491;28;20105;-77
2023/05/27 01:02:41;;;;;;;9.40;4.82;;;19.30;90.10;;;;;;4971237;28;20051;-77
2023/05/27 01:05:12;;;;;;;7.20;4.70;;;19.30;90.10;;;;;;4971163;28;20022;-77
2023/05/27 01:07:41;;;;;;;9.88;4.93;;;19.30;90.10;;;;;;4970966;28;20054;-75
2023/05/27 01:10:23;;;;;;;9.18;4.95;;;19.30;90.60;;;;;;4970819;28;20034;-76
2023/05/27 01:12:54;;;;;;;8.80;4.30;;;19.30;90.30;;;;;;4970564;28;20037;-77
2023/05/27 01:15:21;;;;;;;11.65;4.43;;;19.30;90.30;;;;;;4969522;28;20077;-76
2023/05/27 01:17:50;;;;;;;8.60;3.97;;;19.20;90.20;;;;;;4971111;28;20039;-78
2023/05/27 01:20:17;;;;;;;14.70;4.78;;;19.30;90.20;;;;;;4985825;28;20030;-77
2023/05/27 01:22:44;;;;;;;7.93;4.22;;;19.30;89.90;;;;;;4971034;28;20129;-78
2023/05/27 01:25:10;;;;;;;10.23;4.28;;;19.30;90.10;;;;;;4970645;28;20023;-77
2023/05/27 01:27:36;;;;;;;15.55;4.63;;;19.30;90.20;;;;;;4969473;28;20109;-77
2023/05/27 01:30:02;;;;;;;10.57;5.28;;;19.30;90.20;;;;;;4970808;28;20532;-77
2023/05/27 01:32:35;;;;;;;11.00;3.95;;;19.30;90.20;;;;;;4970963;28;20018;-77
2023/05/27 01:35:23;;;;;;;14.55;4.38;;;19.30;90.50;;;;;;4970579;28;20547;-77
2023/05/27 01:37:53;;;;;;;7.97;4.10;;;19.20;90.60;;;;;;4970628;28;20085;-77
2023/05/27 01:40:19;;;;;;;10.30;5.57;;;19.20;90.70;;;;;;4970630;28;20106;-75
2023/05/27 01:42:45;;;;;;;12.60;4.30;;;19.20;90.40;;;;;;4970446;28;20043;-75
2023/05/27 01:45:12;;;;;;;8.80;4.38;;;19.30;90.30;;;;;;4970716;28;20030;-76
2023/05/27 01:47:38;;;;;;;6.55;3.90;;;19.30;90.20;;;;;;4970659;28;20027;-77
2023/05/27 01:50:05;;;;;;;9.10;4.47;;;19.30;90.10;;;;;;4970471;28;20031;-76
2023/05/27 01:52:31;;;;;;;11.82;4.43;;;19.30;90.00;;;;;;4970632;28;20062;-76
2023/05/27 01:54:57;;;;;;;10.48;4.43;;;19.30;89.80;;;;;;4970785;28;20037;-74
2023/05/27 01:57:24;;;;;;;12.45;3.97;;;19.30;89.50;;;;;;4970657;28;20314;-75
2023/05/27 01:59:50;;;;;;;8.30;4.32;;;19.20;89.70;;;;;;4970312;28;20041;-75
2023/05/27 02:02:16;;;;;;;7.80;4.18;;;19.10;89.90;;;;;;4970259;28;20039;-76
2023/05/27 02:04:41;;;;;;;13.70;4.75;;;19.20;89.10;;;;;;4970541;28;20033;-75
2023/05/27 02:07:07;;;;;;;12.05;4.32;;;19.30;89.70;;;;;;4970489;28;20034;-77
2023/05/27 02:09:33;;;;;;;16.52;5.15;;;19.20;90.20;;;;;;4970424;28;20049;-77
2023/05/27 02:11:58;;;;;;;10.20;4.38;;;19.20;90.40;;;;;;4969226;28;20546;-76
2023/05/27 02:14:24;;;;;;;14.88;5.10;;;19.20;90.40;;;;;;4970327;28;20034;-76
2023/05/27 02:16:50;;;;;;;9.35;5.03;;;19.20;90.90;;;;;;4970257;28;20027;-75
2023/05/27 02:19:17;;;;;;;9.23;4.50;;;19.10;90.80;;;;;;4970199;28;20023;-76
2023/05/27 02:21:42;;;;;;;14.00;4.65;;;19.10;91.00;;;;;;4970384;28;20042;-76
2023/05/27 02:24:08;;;;;;;6.78;4.15;;;19.10;91.10;;;;;;4985078;28;20061;-76
2023/05/27 02:26:34;;;;;;;8.52;4.30;;;19.10;91.10;;;;;;4968848;28;20053;-75
2023/05/27 02:29:00;;;;;;;11.55;5.03;;;19.10;91.40;;;;;;4969027;28;20030;-76
2023/05/27 02:31:26;;;;;;;6.55;4.68;;;19.00;92.00;;;;;;4970278;28;20030;-75
2023/05/27 02:33:51;;;;;;;11.73;4.70;;;19.00;91.90;;;;;;4970298;28;20081;-76
2023/05/27 02:36:17;;;;;;;14.30;5.22;;;18.90;92.10;;;;;;4970221;28;20039;-77
2023/05/27 02:38:44;;;;;;;10.85;4.75;;;18.90;92.00;;;;;;4970180;28;20027;-76
2023/05/27 02:41:09;;;;;;;10.63;5.22;;;19.00;92.10;;;;;;4970380;28;20565;-76
2023/05/27 02:43:35;;;;;;;11.10;4.75;;;18.90;92.20;;;;;;4970194;28;20027;-76
2023/05/27 02:46:01;;;;;;;10.85;5.50;;;18.90;92.40;;;;;;4969025;28;20163;-76
2023/05/27 02:48:27;;;;;;;7.90;4.63;;;18.90;92.70;;;;;;4970176;28;20591;-75
2023/05/27 02:50:52;;;;;;;11.35;4.93;;;18.80;93.00;;;;;;4969994;28;20679;-76
2023/05/27 02:53:18;;;;;;;8.38;4.63;;;18.70;93.20;;;;;;4970103;28;20030;-76
2023/05/27 02:55:44;;;;;;;8.88;4.18;;;18.80;93.00;;;;;;4969958;28;20030;-76
2023/05/27 02:58:10;;;;;;;8.52;4.88;;;18.80;93.20;;;;;;4969287;28;20042;-77
2023/05/27 03:00:35;;;;;;;10.23;4.82;;;18.70;93.70;;;;;;4973587;28;20030;-75
2023/05/27 03:03:04;;;;;;;11.05;5.05;;;18.60;93.90;;;;;;4973347;28;20586;-76
2023/05/27 03:05:29;;;;;;;8.50;4.60;;;18.60;94.20;;;;;;4971302;28;20027;-76
2023/05/27 03:07:55;;;;;;;8.65;4.30;;;18.60;94.30;;;;;;4973393;28;20034;-76
2023/05/27 03:10:21;;;;;;;14.82;4.78;;;18.60;94.40;;;;;;4973190;28;20035;-77
2023/05/27 03:12:46;;;;;;;8.65;4.97;;;18.60;94.50;;;;;;4973276;28;20104;-75
2023/05/27 03:15:12;;;;;;;9.32;4.47;;;18.50;94.70;;;;;;4973098;28;20110;-75
2023/05/27 03:17:38;;;;;;;10.27;4.55;;;18.50;94.70;;;;;;4973236;28;20109;-76
2023/05/27 03:20:07;;;;;;;12.15;5.07;;;18.50;94.80;;;;;;4973212;28;20030;-77
2023/05/27 03:22:33;;;;;;;11.40;4.97;;;18.50;94.90;;;;;;4973543;28;20134;-74
2023/05/27 03:24:58;;;;;;;10.05;4.95;;;18.60;95.00;;;;;;4972933;28;20154;-75
2023/05/27 03:27:24;;;;;;;10.38;4.57;;;18.60;94.60;;;;;;4973261;28;20042;-76
2023/05/27 03:29:50;;;;;;;13.30;4.47;;;18.50;94.90;;;;;;4973044;28;20033;-77
2023/05/27 03:32:16;;;;;;;9.43;4.82;;;18.60;94.90;;;;;;4972895;28;20023;-77
2023/05/27 03:34:42;;;;;;;12.65;5.03;;;18.60;94.30;;;;;;4972955;28;20034;-77
2023/05/27 03:37:07;;;;;;;10.57;4.40;;;18.70;93.70;;;;;;4972790;28;20389;-76
2023/05/27 03:39:33;;;;;;;8.73;4.32;;;18.70;93.40;;;;;;4972843;28;20039;-77
2023/05/27 03:41:59;;;;;;;12.43;4.60;;;18.80;92.60;;;;;;4972658;28;20089;-76
2023/05/27 03:44:24;;;;;;;7.78;4.05;;;18.80;92.90;;;;;;4972620;28;20031;-76
2023/05/27 03:46:50;;;;;;;8.38;4.65;;;18.80;93.20;;;;;;4971109;28;20035;-76
2023/05/27 03:49:16;;;;;;;12.30;4.85;;;18.70;93.00;;;;;;4972696;28;20031;-76
2023/05/27 03:51:42;;;;;;;13.20;4.75;;;18.70;92.60;;;;;;4971449;28;20387;-76
2023/05/27 03:54:07;;;;;;;9.32;5.07;;;18.70;92.40;;;;;;4972490;28;20026;-76
2023/05/27 03:56:33;;;;;;;13.15;3.88;;;18.70;92.50;;;;;;4971112;28;20031;-77
2023/05/27 03:58:58;;;;;;;8.35;4.30;;;18.80;92.20;;;;;;4972278;28;20054;-75
2023/05/27 04:01:24;;;;;;;10.85;4.63;;;18.80;91.90;;;;;;4972143;28;20037;-75
2023/05/27 04:03:50;;;;;;;11.32;4.10;;;18.90;91.70;;;;;;4972142;28;20515;-77
2023/05/27 04:06:16;;;;;;;9.77;4.32;;;19.10;91.60;;;;;;4972214;28;20060;-77
2023/05/27 04:08:42;;;;;;;20.27;5.28;;;19.20;90.30;;;;;;4972073;28;20045;-77
2023/05/27 04:11:12;;;;;;;8.88;4.50;;;19.20;90.20;;;;;;4971010;28;20806;-77
2023/05/27 04:13:38;;;;;;;8.27;4.18;;;19.20;90.00;;;;;;4972365;28;20395;-75
2023/05/27 04:16:03;;;;;;;9.85;3.92;;;19.20;89.90;;;;;;4986823;28;20043;-76
2023/05/27 04:18:29;;;;;;;11.25;4.30;;;19.10;90.10;;;;;;4971887;28;20037;-76
2023/05/27 04:20:55;;;;;;;15.43;4.63;;;19.10;90.10;;;;;;4970345;28;20724;-76
2023/05/27 04:23:21;;;;;;;13.48;4.03;;;19.10;89.50;;;;;;4971863;28;20064;-76
2023/05/27 04:25:48;;;;;;;21.70;4.80;;;19.00;89.20;;;;;;4986772;28;20677;-76
2023/05/27 04:28:15;;;;;;;14.70;4.15;;;18.90;90.10;;;;;;4971743;28;20022;-76
2023/05/27 04:30:41;;;;;;;9.32;4.07;;;18.90;90.30;;;;;;4971781;28;20050;-76
2023/05/27 04:33:07;;;;;;;10.52;3.95;;;18.90;89.50;;;;;;4971600;28;20062;-75
2023/05/27 04:35:33;;;;;;;8.23;4.30;;;18.80;90.20;;;;;;4971597;28;20023;-76
2023/05/27 04:38:00;;;;;;;11.82;4.05;;;18.80;89.80;;;;;;4971863;28;20023;-75
2023/05/27 04:40:28;;;;;;;11.45;5.22;;;18.80;88.90;;;;;;4971701;28;20070;-75
2023/05/27 04:42:55;;;;;;;10.38;3.85;;;18.90;88.30;;;;;;4970042;28;20046;-77
2023/05/27 04:45:21;;;;;;;11.02;4.32;;;18.80;88.50;;;;;;4971575;28;20412;-77
2023/05/27 04:47:46;;;;;;;11.13;3.20;;;18.90;87.10;;;;;;4971699;28;20674;-76
2023/05/27 04:50:13;;;;;;;7.00;3.42;;;19.00;86.80;;;;;;4971358;28;20427;-76
2023/05/27 04:52:40;;;;;;;11.75;3.72;;;19.10;85.60;;;;;;4971260;28;20063;-76
2023/05/27 04:55:08;;;;;;;10.20;3.63;;;19.30;84.40;;;;;;4986011;28;20121;-76
2023/05/27 04:57:34;;;;;;;10.15;3.63;;;19.50;83.00;;;;;;4971113;28;20520;-75
2023/05/27 05:02:35;;;;;;;11.50;3.90;;;19.90;79.00;;;;;;4971421;28;20070;-77
2023/05/27 05:05:02;;;;;;;8.02;3.40;;;20.10;77.90;;;;;;4970897;28;20023;-77
2023/05/27 05:07:28;;;;;;;10.77;3.42;;;20.20;77.40;;;;;;4971118;28;20035;-73
2023/05/27 05:09:54;;;;;;;9.10;3.80;;;20.40;76.80;;;;;;4971130;28;20058;-74
2023/05/27 05:12:20;;;;;;;28.23;3.90;;;20.60;74.80;;;;;;4970886;28;20031;-74
2023/05/27 05:14:46;;;;;;;17.10;4.05;;;20.60;74.60;;;;;;4971014;28;20023;-74
2023/05/27 05:17:11;;;;;;;11.70;3.35;;;20.60;74.30;;;;;;4970838;28;20062;-74
2023/05/27 05:19:37;;;;;;;8.63;3.80;;;20.60;73.80;;;;;;4970823;28;20035;-75
2023/05/27 05:22:03;;;;;;;9.60;3.53;;;20.50;74.30;;;;;;4970519;28;20038;-74
2023/05/27 05:24:29;;;;;;;9.27;3.50;;;20.50;72.80;;;;;;4971025;28;20673;-74
2023/05/27 05:26:54;;;;;;;9.82;3.50;;;20.50;73.80;;;;;;4970675;28;20041;-74
2023/05/27 05:29:20;;;;;;;11.82;3.20;;;20.40;72.90;;;;;;4970888;28;20027;-74
2023/05/27 05:31:46;;;;;;;11.88;4.38;;;20.50;73.20;;;;;;4970971;28;20035;-74
2023/05/27 05:34:12;;;;;;;7.35;3.42;;;20.50;72.20;;;;;;4970801;28;20480;-74
2023/05/27 05:36:37;;;;;;;15.45;3.92;;;20.50;73.30;;;;;;4970940;28;20034;-74
2023/05/27 05:39:04;;;;;;;13.27;4.45;;;20.70;73.50;;;;;;4969413;28;20509;-75
2023/05/27 05:41:30;;;;;;;9.07;3.85;;;20.80;73.00;;;;;;4970663;28;20112;-73
2023/05/27 05:43:55;;;;;;;8.50;3.30;;;20.80;72.20;;;;;;4970638;28;20039;-74
2023/05/27 05:46:21;;;;;;;7.28;3.60;;;20.80;72.80;;;;;;4970716;28;20034;-74
2023/05/27 05:48:47;;;;;;;11.82;3.78;;;20.80;73.60;;;;;;4970674;28;20039;-72
2023/05/27 05:51:12;;;;;;;7.55;3.75;;;20.80;71.00;;;;;;4970728;28;20101;-74
2023/05/27 05:53:38;;;;;;;14.70;4.13;;;20.70;70.20;;;;;;4970581;28;20430;-74
2023/05/27 05:56:04;;;;;;;16.60;4.32;;;21.00;70.10;;;;;;4970460;28;20817;-74
2023/05/27 05:58:30;;;;;;;15.32;3.88;;;21.60;68.40;;;;;;4970605;28;20027;-74
2023/05/27 06:00:55;;;;;;;12.20;3.72;;;21.80;68.00;;;;;;4970303;28;20578;-75
2023/05/27 06:03:21;;;;;;;8.55;3.78;;;22.00;65.60;;;;;;4970399;28;20535;-74
2023/05/27 06:05:47;;;;;;;8.35;3.42;;;21.80;65.10;;;;;;4970595;28;20110;-76
2023/05/27 06:08:12;;;;;;;16.15;4.00;;;21.60;66.00;;;;;;4970430;28;20553;-76
2023/05/27 06:10:38;;;;;;;5.53;3.13;;;21.60;67.10;;;;;;4970503;28;20042;-77
2023/05/27 06:13:05;;;;;;;6.55;3.33;;;21.50;68.00;;;;;;4970355;28;20035;-77
2023/05/27 06:15:31;;;;;;;9.05;3.28;;;21.60;67.30;;;;;;4968991;28;20018;-75
2023/05/27 06:17:57;;;;;;;9.23;3.60;;;21.50;68.00;;;;;;4970417;28;20053;-77
2023/05/27 06:20:23;;;;;;;14.40;4.07;;;21.60;69.80;;;;;;4968888;28;20027;-77
2023/05/27 06:22:49;;;;;;;11.70;3.85;;;21.50;68.40;;;;;;4970824;28;20031;-75
2023/05/27 06:25:15;;;;;;;8.63;3.95;;;21.50;65.10;;;;;;4970090;28;20030;-76
2023/05/27 06:27:41;;;;;;;10.48;4.28;;;21.50;66.70;;;;;;4970260;28;20419;-77
2023/05/27 06:30:07;;;;;;;9.45;3.13;;;21.50;66.40;;;;;;4970219;28;20027;-77
2023/05/27 06:32:33;;;;;;;12.88;3.85;;;21.50;65.60;;;;;;4970131;28;20034;-76
2023/05/27 06:34:58;;;;;;;9.57;3.17;;;21.40;65.00;;;;;;4972870;28;20086;-76
2023/05/27 06:37:24;;;;;;;8.82;2.85;;;21.20;66.40;;;;;;4973888;28;20042;-76
2023/05/27 06:39:50;;;;;;;6.55;2.47;;;21.10;65.40;;;;;;4973697;28;20031;-76
2023/05/27 06:42:15;;;;;;;11.40;3.30;;;21.10;66.10;;;;;;4973724;28;20514;-76
2023/05/27 06:44:41;;;;;;;8.68;3.63;;;21.10;65.10;;;;;;4973776;28;20065;-77
2023/05/27 06:47:07;;;;;;;10.68;3.85;;;21.10;64.10;;;;;;4973678;28;20494;-76
2023/05/27 06:49:33;;;;;;;11.15;3.70;;;21.00;65.90;;;;;;4972484;28;20649;-77
2023/05/27 06:51:59;;;;;;;13.48;3.42;;;21.00;65.50;;;;;;4973685;28;20080;-76
2023/05/27 06:54:24;;;;;;;11.75;3.60;;;20.90;66.70;;;;;;4973586;28;20030;-77
2023/05/27 06:56:50;;;;;;;12.73;3.65;;;20.90;66.30;;;;;;4973485;28;20027;-76
2023/05/27 06:59:16;;;;;;;17.08;3.65;;;20.80;65.50;;;;;;4973548;28;20487;-75
2023/05/27 07:01:41;;;;;;;9.70;3.70;;;20.80;64.80;;;;;;4973117;28;20454;-77
2023/05/27 07:04:07;;;;;;;9.95;3.13;;;20.60;63.30;;;;;;4973232;28;20045;-77
2023/05/27 07:06:32;;;;;;;9.82;3.83;;;20.60;65.10;;;;;;4973390;28;20550;-75
2023/05/27 07:08:58;;;;;;;9.00;2.97;;;20.60;68.00;;;;;;4973119;28;20130;-77
2023/05/27 07:11:25;;;;;;;12.68;3.83;;;20.60;66.90;;;;;;4973119;28;20116;-77
2023/05/27 07:13:51;;;;;;;8.25;3.30;;;20.60;64.80;;;;;;4973562;28;20026;-76
2023/05/27 07:16:16;;;;;;;14.30;3.67;;;20.40;64.60;;;;;;4973083;28;20930;-77
2023/05/27 07:18:43;;;;;;;11.30;3.67;;;20.30;66.20;;;;;;4973249;28;20038;-77
2023/05/27 07:21:08;;;;;;;8.95;3.47;;;20.30;66.90;;;;;;4973106;28;20041;-77
2023/05/27 07:23:34;;;;;;;14.82;3.10;;;20.30;66.80;;;;;;4973079;28;20435;-76
2023/05/27 07:26:00;;;;;;;8.50;2.88;;;20.30;66.40;;;;;;4971883;28;20062;-76
2023/05/27 07:28:26;;;;;;;7.75;3.25;;;20.20;65.80;;;;;;4972940;28;20027;-76
2023/05/27 07:30:51;;;;;;;8.63;3.05;;;20.20;66.80;;;;;;4972772;28;20035;-76
2023/05/27 07:33:17;;;;;;;8.43;2.92;;;20.00;64.60;;;;;;4972888;28;20039;-76
2023/05/27 07:35:43;;;;;;;8.95;3.05;;;20.00;66.60;;;;;;4972754;28;20039;-76
2023/05/27 07:38:09;;;;;;;16.00;3.20;;;20.00;69.00;;;;;;4972882;28;20019;-77
2023/05/27 07:40:35;;;;;;;12.02;3.08;;;20.10;68.70;;;;;;4972888;28;20379;-75
2023/05/27 07:43:01;;;;;;;6.85;2.65;;;20.00;69.40;;;;;;4972630;28;20042;-74
2023/05/27 07:45:28;;;;;;;8.90;2.58;;;20.00;67.80;;;;;;4972538;28;20238;-76
2023/05/27 07:47:53;;;;;;;12.23;3.55;;;20.10;67.30;;;;;;4972833;28;20035;-76
2023/05/27 07:50:19;;;;;;;11.70;3.63;;;20.10;67.50;;;;;;4972636;28;20065;-76
2023/05/27 07:52:45;;;;;;;13.07;3.05;;;20.00;66.60;;;;;;4972619;28;20852;-75
2023/05/27 07:55:11;;;;;;;11.10;3.67;;;20.00;66.70;;;;;;4972378;28;20038;-76
2023/05/27 07:57:36;;;;;;;14.68;3.00;;;19.90;67.60;;;;;;4972532;28;20023;-75
2023/05/27 08:00:05;;;;;;;9.77;3.85;;;19.90;68.90;;;;;;4972383;28;20569;-75
2023/05/27 08:02:31;;;;;;;7.95;2.80;;;19.90;67.80;;;;;;4972374;28;20475;-76
2023/05/27 08:04:57;;;;;;;12.60;3.03;;;19.80;68.80;;;;;;4972043;28;20432;-76
2023/05/27 08:07:23;;;;;;;13.13;3.15;;;19.80;69.10;;;;;;4972232;28;20027;-76
2023/05/27 08:09:48;;;;;;;19.25;9.48;;;19.90;69.50;;;;;;4972300;28;20085;-76
2023/05/27 08:12:14;;;;;;;21.23;6.35;;;20.00;71.20;;;;;;4972250;28;20506;-76
2023/05/27 08:14:43;;;;;;;15.32;6.60;;;20.00;71.30;;;;;;4970838;28;20030;-76
2023/05/27 08:17:09;;;;;;;14.70;7.03;;;20.00;72.50;;;;;;4972043;28;20019;-75
2023/05/27 08:19:34;;;;;;;26.77;12.15;;;20.00;72.70;;;;;;4987111;28;20027;-76
2023/05/27 08:22:01;;;;;;;33.70;13.32;;;20.10;71.60;;;;;;4972128;28;20026;-76
2023/05/27 08:24:27;;;;;;;80.32;45.28;;;20.10;71.30;;;;;;4970644;28;20133;-76
2023/05/27 08:26:53;;;;;;;24.80;9.15;;;20.20;73.30;;;;;;4971973;28;20098;-76
2023/05/27 08:29:19;;;;;;;12.60;3.38;;;20.30;72.30;;;;;;4971986;28;20043;-76
2023/05/27 08:31:45;;;;;;;12.82;3.00;;;20.30;69.60;;;;;;4986828;28;20114;-76
2023/05/27 08:34:11;;;;;;;7.05;2.95;;;20.30;71.40;;;;;;4972026;28;20081;-76
2023/05/27 08:36:37;;;;;;;10.38;3.13;;;20.40;71.20;;;;;;4970610;28;20023;-76
2023/05/27 08:39:04;;;;;;;12.90;3.53;;;20.40;70.90;;;;;;4971583;28;20039;-76
2023/05/27 08:41:30;;;;;;;10.40;3.90;;;20.50;71.50;;;;;;4971662;28;20117;-76
2023/05/27 08:43:56;;;;;;;9.35;5.05;;;20.60;72.30;;;;;;4971613;28;20109;-76
2023/05/27 08:46:23;;;;;;;17.48;5.28;;;20.80;73.40;;;;;;4970250;28;20027;-76
2023/05/27 08:48:49;;;;;;;12.98;4.35;;;21.10;74.10;;;;;;4971559;28;20027;-76
2023/05/27 08:51:18;;;;;;;6.55;3.50;;;21.10;72.20;;;;;;4971389;28;20495;-76
2023/05/27 08:53:46;;;;;;;8.65;3.70;;;21.20;70.40;;;;;;4969949;28;20073;-77
2023/05/27 08:56:14;;;;;;;13.95;4.47;;;21.40;71.50;;;;;;4970785;28;20054;-76
2023/05/27 08:58:41;;;;;;;10.75;4.53;;;21.40;72.00;;;;;;4971245;28;20062;-76
2023/05/27 09:01:08;;;;;;;9.10;3.45;;;21.70;71.40;;;;;;4971136;28;20926;-76
2023/05/27 09:03:33;;;;;;;10.93;4.65;;;21.70;68.50;;;;;;4971011;28;20056;-77
2023/05/27 09:06:03;;;;;;;9.52;3.22;;;21.80;69.20;;;;;;4971316;28;20115;-76
2023/05/27 09:08:29;;;;;;;8.43;3.30;;;21.90;69.40;;;;;;4971256;28;20155;-77
2023/05/27 09:10:55;;;;;;;14.68;3.40;;;21.90;69.00;;;;;;4971092;28;20034;-75
2023/05/27 09:13:28;;;;;;;7.00;2.97;;;22.00;69.30;;;;;;4971326;28;20031;-77
2023/05/27 09:16:02;;;;;;;10.90;3.80;;;21.90;68.00;;;;;;4971265;28;20027;-76
2023/05/27 09:18:32;;;;;;;13.27;3.95;;;21.90;70.80;;;;;;4971191;28;20534;-77
2023/05/27 09:20:58;;;;;;;15.43;4.80;;;21.90;72.60;;;;;;4969461;28;20388;-77
2023/05/27 09:23:25;;;;;;;11.32;3.60;;;21.90;72.50;;;;;;4971029;28;20042;-76
2023/05/27 09:25:51;;;;;;;9.65;3.88;;;22.00;72.40;;;;;;4970979;28;20031;-76
2023/05/27 09:28:21;;;;;;;7.68;3.58;;;22.00;72.10;;;;;;4969723;28;20034;-76
2023/05/27 09:30:51;;;;;;;7.13;3.03;;;22.10;72.10;;;;;;4970931;28;20039;-76
2023/05/27 09:33:23;;;;;;;7.15;3.58;;;22.20;73.30;;;;;;4985676;28;20034;-76
2023/05/27 09:35:49;;;;;;;12.80;3.63;;;22.20;72.00;;;;;;4970815;28;20023;-77
2023/05/27 09:38:15;;;;;;;14.70;3.80;;;22.30;70.80;;;;;;4970804;28;20222;-75
2023/05/27 09:40:44;;;;;;;5.72;2.95;;;22.30;70.60;;;;;;4970834;28;20246;-76
2023/05/27 09:43:14;;;;;;;12.25;3.10;;;22.20;69.70;;;;;;4985380;28;20078;-76
2023/05/27 09:45:40;;;;;;;7.47;3.03;;;22.10;70.80;;;;;;4970913;28;20384;-77
2023/05/27 09:48:08;;;;;;;10.50;2.78;;;22.00;70.20;;;;;;4970638;28;20029;-77
2023/05/27 09:50:34;;;;;;;11.57;3.15;;;22.00;70.20;;;;;;4985442;28;20125;-75
2023/05/27 09:53:01;;;;;;;6.38;3.10;;;21.90;66.50;;;;;;4970510;28;20022;-76
2023/05/27 09:55:28;;;;;;;9.43;3.35;;;21.90;67.10;;;;;;4970767;28;20031;-76
2023/05/27 09:57:54;;;;;;;11.65;3.10;;;21.90;69.00;;;;;;4970583;28;20082;-76
2023/05/27 10:00:21;;;;;;;7.75;2.60;;;22.00;69.00;;;;;;4970442;28;20484;-76
2023/05/27 10:02:48;;;;;;;8.02;2.78;;;22.00;70.50;;;;;;4970377;28;20076;-76
2023/05/27 10:05:15;;;;;;;9.38;2.97;;;22.00;70.40;;;;;;4970224;28;20027;-75
2023/05/27 10:07:45;;;;;;;5.97;3.03;;;22.10;72.00;;;;;;4970635;28;20057;-75
2023/05/27 10:10:14;;;;;;;8.52;3.33;;;22.10;69.20;;;;;;4973761;28;20479;-75
2023/05/27 10:12:46;;;;;;;11.57;3.00;;;22.30;68.30;;;;;;4974577;28;20058;-74
2023/05/27 10:15:27;;;;;;;5.45;3.08;;;22.50;67.50;;;;;;4974300;28;20034;-74
2023/05/27 10:17:58;;;;;;;11.85;2.90;;;22.70;65.10;;;;;;4974417;28;20038;-75
2023/05/27 10:20:32;;;;;;;8.35;3.20;;;22.90;67.00;;;;;;4972985;28;20027;-75
2023/05/27 10:23:16;;;;;;;6.93;2.78;;;23.00;64.70;;;;;;4973874;28;20505;-75
2023/05/27 10:25:52;;;;;;;11.73;2.85;;;23.30;63.50;;;;;;4974113;28;20143;-74
2023/05/27 10:28:28;;;;;;;8.57;3.00;;;23.50;63.30;;;;;;4988664;28;20407;-75
2023/05/27 10:31:02;;;;;;;10.70;3.70;;;23.80;65.00;;;;;;4973968;28;20131;-74
2023/05/27 10:33:36;;;;;;;9.00;2.90;;;24.00;63.70;;;;;;4974225;28;20503;-74
2023/05/27 10:36:08;;;;;;;10.68;2.83;;;24.50;64.90;;;;;;4973950;28;20114;-74
2023/05/27 10:38:34;;;;;;;9.10;2.90;;;24.50;60.60;;;;;;4972485;28;20030;-75
2023/05/27 10:41:02;;;;;;;8.95;3.40;;;24.50;61.70;;;;;;4973714;28;20500;-73
2023/05/27 10:43:38;;;;;;;12.82;3.05;;;24.40;60.30;;;;;;4988746;28;20447;-76
2023/05/27 10:46:13;;;;;;;9.55;3.72;;;24.20;61.80;;;;;;4972526;28;20027;-75
2023/05/27 10:48:39;;;;;;;12.68;3.47;;;24.10;60.20;;;;;;4972512;28;20074;-75
2023/05/27 10:51:06;;;;;;;7.65;3.10;;;24.00;59.70;;;;;;4988538;28;20019;-75
2023/05/27 10:53:34;;;;;;;14.18;3.63;;;23.80;60.90;;;;;;4969249;28;20089;-75
2023/05/27 10:56:01;;;;;;;10.18;3.17;;;23.70;62.40;;;;;;4969245;28;20027;-75
2023/05/27 10:58:28;;;;;;;8.57;2.97;;;23.70;62.30;;;;;;4973500;28;20392;-75
2023/05/27 11:00:55;;;;;;;11.95;2.70;;;23.60;59.90;;;;;;4973487;28;20027;-75
2023/05/27 11:03:26;;;;;;;12.50;3.35;;;23.60;61.50;;;;;;4973329;28;20055;-74
2023/05/27 11:06:05;;;;;;;8.05;3.50;;;23.60;61.60;;;;;;4973463;28;20055;-75
2023/05/27 11:08:34;;;;;;;8.02;3.00;;;23.60;61.30;;;;;;4973516;28;20035;-75
2023/05/27 11:11:06;;;;;;;16.67;3.10;;;23.60;60.50;;;;;;4973192;28;20046;-74
2023/05/27 11:13:35;;;;;;;7.63;3.15;;;23.70;61.30;;;;;;4971343;28;20074;-74
2023/05/27 11:16:02;;;;;;;8.45;2.90;;;23.70;59.40;;;;;;4973273;28;20027;-75
2023/05/27 11:18:41;;;;;;;9.55;2.60;;;23.70;60.10;;;;;;4973215;28;20041;-75
2023/05/27 11:21:08;;;;;;;6.93;3.08;;;23.80;58.70;;;;;;4972459;28;20111;-75
2023/05/27 11:23:45;;;;;;;6.70;3.03;;;23.80;60.30;;;;;;4973199;28;20038;-74
2023/05/27 11:26:15;;;;;;;9.20;3.00;;;23.90;60.90;;;;;;4987950;28;20023;-74
2023/05/27 11:28:52;;;;;;;15.48;3.55;;;24.10;58.60;;;;;;4973135;28;20525;-75
2023/05/27 11:31:19;;;;;;;8.10;2.85;;;24.10;57.90;;;;;;4973164;28;20114;-75
2023/05/27 11:33:46;;;;;;;8.30;3.58;;;24.20;59.30;;;;;;4973220;28;20648;-74
2023/05/27 11:36:14;;;;;;;11.05;3.05;;;24.10;59.30;;;;;;4973301;28;20041;-74
2023/05/27 11:38:51;;;;;;;13.55;3.58;;;24.10;59.20;;;;;;4973179;28;20032;-75
2023/05/27 11:41:21;;;;;;;16.20;4.28;;;24.10;57.80;;;;;;4972909;28;20106;-75
2023/05/27 11:43:50;;;;;;;9.80;3.08;;;24.00;56.70;;;;;;4972838;28;20452;-75
2023/05/27 11:46:17;;;;;;;6.72;2.97;;;24.10;57.80;;;;;;4972748;28;20129;-75
2023/05/27 11:48:43;;;;;;;6.88;3.08;;;23.90;56.80;;;;;;4972694;28;20030;-75
2023/05/27 11:51:10;;;;;;;7.10;2.72;;;23.90;57.00;;;;;;4972631;28;20027;-75
2023/05/27 11:53:40;;;;;;;7.50;3.13;;;23.70;58.90;;;;;;4972542;28;20039;-74
2023/05/27 11:56:06;;;;;;;8.98;3.10;;;23.80;58.90;;;;;;4972609;28;20027;-75
2023/05/27 11:58:31;;;;;;;6.95;3.30;;;23.90;59.10;;;;;;4972318;28;20031;-75
2023/05/27 12:00:57;;;;;;;9.02;3.22;;;24.10;58.60;;;;;;4972277;28;20101;-74
2023/05/27 12:03:23;;;;;;;5.93;2.67;;;24.50;56.90;;;;;;4971997;28;20113;-74
2023/05/27 12:05:48;;;;;;;8.35;3.17;;;24.90;59.00;;;;;;4971250;28;20030;-74
2023/05/27 12:08:14;;;;;;;9.07;2.92;;;25.30;56.80;;;;;;4970982;28;20027;-75
2023/05/27 12:10:40;;;;;;;5.88;2.85;;;25.40;53.60;;;;;;4972267;28;20026;-75
2023/05/27 12:13:06;;;;;;;9.68;3.97;;;25.20;52.70;;;;;;4971761;28;20027;-75
2023/05/27 12:15:32;;;;;;;8.85;3.47;;;24.90;52.30;;;;;;4970863;28;20023;-74
2023/05/27 12:17:58;;;;;;;5.32;3.17;;;24.60;53.90;;;;;;4971132;28;20038;-74
2023/05/27 12:20:28;;;;;;;7.43;2.55;;;24.40;54.40;;;;;;4972510;28;20030;-75
2023/05/27 12:22:55;;;;;;;6.93;3.50;;;24.30;54.60;;;;;;4971860;28;20038;-74
2023/05/27 12:25:20;;;;;;;6.75;3.05;;;24.20;55.20;;;;;;4972032;28;20464;-74
2023/05/27 12:27:46;;;;;;;7.57;3.47;;;24.30;56.40;;;;;;4972001;28;20039;-75
2023/05/27 12:30:13;;;;;;;6.22;3.05;;;24.30;57.30;;;;;;4971848;28;20053;-75
2023/05/27 12:32:39;;;;;;;7.38;3.33;;;24.30;59.60;;;;;;4971016;28;20133;-75
2023/05/27 12:35:05;;;;;;;5.75;3.00;;;24.50;58.00;;;;;;4971559;28;20027;-75
2023/05/27 12:37:31;;;;;;;8.15;3.13;;;24.40;57.20;;;;;;4971877;28;20054;-75
2023/05/27 12:39:57;;;;;;;9.45;3.15;;;24.40;56.90;;;;;;4971668;28;20026;-75
2023/05/27 12:42:23;;;;;;;7.70;3.75;;;24.40;57.10;;;;;;4971589;28;20042;-73